Time;durP1;ratioP1;P1;durP2;ratioP2;P2;SDS_P1;SDS_P2;PMS_P1;PMS_P2;Temp;Humidity;BMP_temperature;BMP_pressure;BME280_temperature;BME280_humidity;BME280_pressure;Samples;Min_cycle;Max_cycle;Signal;HPM_P1;HPM_P2
2023/07/26 04:32:16;;;;;;;;;5.00;4.00;;;;;24.06;41.35;101043.41;5019229;23;45758;-60
2023/07/26 04:34:41;;;;;;;;;5.25;4.00;;;;;23.99;41.27;101047.72;4903059;28;55144;-61
2023/07/26 04:37:07;;;;;;;;;6.25;5.00;;;;;24.05;41.54;101055.38;4903764;29;45316;-61
2023/07/26 04:39:32;;;;;;;;;3.00;3.00;;;;;23.89;41.87;101035.97;4910446;28;45545;-61
2023/07/26 04:41:58;;;;;;;;;6.75;5.25;;;;;23.89;42.08;101049.66;4903808;28;51514;-61
2023/07/26 04:44:23;;;;;;;;;5.00;5.00;;;;;23.86;41.82;101063.63;4903019;29;46330;-61
2023/07/26 04:46:48;;;;;;;;;5.00;5.00;;;;;23.82;41.97;101063.06;4908182;28;45540;-59
2023/07/26 04:49:14;;;;;;;;;6.50;6.50;;;;;23.83;42.12;101059.31;4910129;28;55025;-60
2023/07/26 04:51:39;;;;;;;;;5.00;4.75;;;;;23.89;42.16;101061.47;4903437;29;46202;-60
2023/07/26 04:54:05;;;;;;;;;3.50;3.50;;;;;23.85;42.24;101062.78;4902957;29;62915;-60
2023/07/26 04:56:31;;;;;;;;;5.25;5.25;;;;;23.93;41.97;101068.38;4903676;28;45378;-60
2023/07/26 04:58:56;;;;;;;;;5.25;5.25;;;;;23.93;42.21;101062.03;4904098;28;45283;-61
2023/07/26 05:01:23;;;;;;;;;5.00;5.00;;;;;23.99;42.07;101059.53;4908667;28;58619;-60
2023/07/26 05:03:48;;;;;;;;;7.00;7.00;;;;;23.98;42.13;101066.06;4915496;28;46066;-61
2023/07/26 05:06:14;;;;;;;;;5.75;5.75;;;;;23.98;42.12;101074.28;4918126;28;45274;-61
2023/07/26 05:08:39;;;;;;;;;6.00;6.00;;;;;24.04;42.42;101065.47;4910207;28;45186;-61
2023/07/26 05:11:05;;;;;;;;;6.00;6.00;;;;;24.10;42.43;101072.22;4903514;29;45562;-60
2023/07/26 05:13:30;;;;;;;;;6.00;6.00;;;;;23.96;42.84;101080.91;4903425;28;45999;-61
2023/07/26 05:15:55;;;;;;;;;5.25;5.25;;;;;23.80;43.16;101076.06;4921143;28;45275;-61
2023/07/26 05:18:21;;;;;;;;;8.25;7.00;;;;;23.85;43.45;101079.19;4903945;29;52979;-61
2023/07/26 05:20:50;;;;;;;;;5.25;5.25;;;;;23.84;43.31;101071.13;4904187;29;45645;-61
2023/07/26 05:23:15;;;;;;;;;4.75;4.75;;;;;23.93;43.59;101075.72;4904079;29;46235;-61
2023/07/26 05:25:41;;;;;;;;;7.00;7.00;;;;;23.99;43.45;101081.47;4903820;28;45291;-61
2023/07/26 05:28:06;;;;;;;;;6.00;6.00;;;;;24.02;43.36;101080.31;4904428;29;45722;-61
2023/07/26 05:30:31;;;;;;;;;5.75;5.75;;;;;23.98;43.75;101087.97;4906098;28;50415;-60
2023/07/26 05:32:57;;;;;;;;;8.00;6.00;;;;;24.00;43.80;101085.06;4907998;28;46099;-61
2023/07/26 05:35:22;;;;;;;;;10.50;5.50;;;;;23.98;43.60;101078.91;4904128;29;47474;-61
2023/07/26 05:37:49;;;;;;;;;6.00;5.25;;;;;24.04;43.65;101090.13;4904142;29;45174;-60
2023/07/26 05:40:14;;;;;;;;;8.50;7.50;;;;;24.08;43.89;101087.91;4900387;28;46441;-61
2023/07/26 05:42:39;;;;;;;;;6.75;6.75;;;;;24.04;44.09;101092.84;4904614;28;45425;-61
2023/07/26 05:45:05;;;;;;;;;6.50;6.50;;;;;23.97;44.36;101077.16;4903638;28;45259;-59
2023/07/26 05:47:33;;;;;;;;;5.00;3.50;;;;;24.03;44.20;101090.25;4914910;28;45499;-60
2023/07/26 05:49:58;;;;;;;;;6.00;6.00;;;;;24.12;44.28;101097.59;4904920;28;45425;-60
2023/07/26 05:52:23;;;;;;;;;9.25;9.25;;;;;24.21;43.98;101104.94;4903480;29;59228;-60
2023/07/26 05:54:48;;;;;;;;;6.25;6.00;;;;;24.21;44.20;101099.47;4903340;29;47797;-59
2023/07/26 05:57:14;;;;;;;;;4.25;4.25;;;;;24.21;44.20;101096.72;4903944;29;45348;-59
2023/07/26 05:59:39;;;;;;;;;4.25;4.00;;;;;24.30;43.95;101108.66;4903095;29;60173;-60
2023/07/26 06:02:05;;;;;;;;;7.25;6.00;;;;;24.33;44.12;101111.13;4903734;29;46258;-59
2023/07/26 06:04:30;;;;;;;;;6.75;6.75;;;;;24.24;44.15;101117.50;4903175;28;45342;-61
2023/07/26 06:06:56;;;;;;;;;8.25;7.00;;;;;24.06;44.50;101117.38;4909216;28;45309;-59
2023/07/26 06:09:22;;;;;;;;;6.75;6.50;;;;;24.07;44.35;101121.84;4922212;28;45361;-61
2023/07/26 06:11:47;;;;;;;;;6.75;5.00;;;;;24.19;44.48;101126.09;4911368;28;46070;-60
2023/07/26 06:14:12;;;;;;;;;7.25;7.25;;;;;24.28;44.35;101133.47;4904153;28;45311;-61
2023/07/26 06:16:38;;;;;;;;;12.25;9.50;;;;;24.36;44.31;101125.38;4906003;28;48356;-60
2023/07/26 06:19:03;;;;;;;;;11.75;11.75;;;;;24.51;43.70;101122.97;4916971;28;45374;-60
